createdAt,value
2022-12-23T00:00:01.448Z,2298.41
2022-12-23T00:05:01.447Z,197.406
2022-12-23T00:10:01.460Z,266.516
2022-12-23T00:15:01.423Z,311.712
2022-12-23T00:20:01.660Z,299.535
2022-12-23T00:25:01.613Z,261.921
2022-12-23T00:30:01.624Z,176.579
2022-12-23T00:35:01.537Z,165.686
2022-12-23T00:40:06.401Z,163.69
2022-12-23T00:45:01.456Z,163.885
2022-12-23T00:50:01.504Z,164.455
2022-12-23T00:55:01.497Z,163.942
2022-12-23T01:00:01.519Z,261.572
2022-12-23T01:05:01.491Z,278.653
2022-12-23T01:10:01.587Z,272.502
2022-12-23T01:15:01.465Z,212.59
2022-12-23T01:20:01.503Z,188.22400000000002
2022-12-23T01:25:01.517Z,191.06300000000002
2022-12-23T01:30:01.537Z,187.535
2022-12-23T01:35:01.503Z,551.178
2022-12-23T01:40:01.538Z,2192.285
2022-12-23T01:45:01.502Z,2235.721
2022-12-23T01:50:01.580Z,2528.08
2022-12-23T01:55:01.694Z,2775.814
2022-12-23T02:00:01.669Z,240.692
2022-12-23T02:05:01.656Z,164.79
2022-12-23T02:10:01.757Z,164.474
2022-12-23T02:15:02.195Z,164.403
2022-12-23T02:20:01.643Z,171.721
2022-12-23T02:25:01.575Z,188.982
2022-12-23T02:30:01.512Z,193.684
2022-12-23T02:35:01.558Z,310.145
2022-12-23T02:40:01.614Z,313.098
2022-12-23T02:45:01.533Z,299.147
2022-12-23T02:50:01.683Z,201.00900000000001
2022-12-23T02:55:01.542Z,189.091
2022-12-23T03:00:01.597Z,181.32500000000002
2022-12-23T03:05:01.612Z,165.78
2022-12-23T03:10:01.569Z,165.475
2022-12-23T03:15:01.570Z,165.465
2022-12-23T03:20:01.727Z,230.354
2022-12-23T03:25:01.601Z,283.318
2022-12-23T03:30:01.582Z,275.948
2022-12-23T03:35:01.615Z,291.448
2022-12-23T03:40:01.726Z,2180.491
2022-12-23T03:45:36.789Z,2187.92
2022-12-23T03:50:01.786Z,2233.342
2022-12-23T03:55:01.731Z,2521.6150000000002
2022-12-23T04:00:01.725Z,2686.333
2022-12-23T04:05:01.626Z,970.277
2022-12-23T04:10:01.618Z,292.468
2022-12-23T04:15:02.025Z,277.65500000000003
2022-12-23T04:20:01.674Z,273.354
2022-12-23T04:25:01.665Z,170.614
2022-12-23T04:30:01.739Z,164.162
2022-12-23T04:35:01.650Z,164.788
2022-12-23T04:40:01.642Z,164.85
2022-12-23T04:45:01.719Z,164.755
2022-12-23T04:50:01.676Z,164.44
2022-12-23T04:55:01.732Z,233.391
2022-12-23T05:00:01.702Z,289.108
2022-12-23T05:05:01.671Z,298.908
2022-12-23T05:10:01.984Z,239.936
2022-12-23T05:15:01.829Z,187.25
2022-12-23T05:20:01.932Z,192.528
2022-12-23T05:25:01.835Z,194.523
2022-12-23T05:30:01.808Z,186.05
2022-12-23T05:35:01.705Z,161.095
2022-12-23T05:40:01.701Z,168.748
2022-12-23T05:45:01.771Z,280.808
2022-12-23T05:50:01.831Z,1248.746
2022-12-23T05:55:01.731Z,2307.27
2022-12-23T06:00:01.721Z,2232.17
2022-12-23T06:05:01.735Z,2420.378
2022-12-23T06:10:01.721Z,2493.868
2022-12-23T06:15:01.754Z,199.357
2022-12-23T06:20:01.821Z,197.624
2022-12-23T06:25:01.981Z,196.018
2022-12-23T06:30:01.754Z,282.03000000000003
2022-12-23T06:35:01.947Z,311.28000000000003
2022-12-23T06:40:01.900Z,305.696
2022-12-23T06:45:01.914Z,227.584
2022-12-23T06:50:01.863Z,211.905
2022-12-23T06:55:01.768Z,215.411
2022-12-23T07:00:01.831Z,214.817
2022-12-23T07:05:01.788Z,236.704
2022-12-23T07:10:01.756Z,241.037
2022-12-23T07:15:01.762Z,286.31
2022-12-23T07:20:01.874Z,1011.274
2022-12-23T07:25:02.002Z,2338.201
2022-12-23T07:30:01.788Z,2316.1330000000003
2022-12-23T07:35:01.799Z,2300.117
2022-12-23T07:40:06.706Z,2814.96
2022-12-23T07:45:01.753Z,1262.2740000000001
2022-12-23T07:50:01.984Z,224.90800000000002
2022-12-23T07:55:01.911Z,225.25900000000001
2022-12-23T08:00:01.969Z,227.686
2022-12-23T08:05:01.954Z,314.168
2022-12-23T08:10:01.858Z,339.947
2022-12-23T08:15:01.815Z,348.952
2022-12-23T08:20:01.920Z,278.669
2022-12-23T08:25:01.972Z,2517.981
2022-12-23T08:30:01.868Z,3321.077
2022-12-23T08:35:01.848Z,2605.7110000000002
2022-12-23T08:40:01.892Z,901.357
2022-12-23T08:45:01.839Z,1294.175
2022-12-23T08:50:02.021Z,440.22700000000003
2022-12-23T08:55:01.899Z,644.021
2022-12-23T09:00:01.860Z,2209.85
2022-12-23T09:05:02.099Z,2353.109
2022-12-23T09:10:02.055Z,2688.467
2022-12-23T09:15:02.030Z,2174.227
2022-12-23T09:20:02.010Z,1245.22
2022-12-23T09:25:05.137Z,2708.041
2022-12-23T09:30:01.916Z,3880.639
2022-12-23T09:35:01.896Z,3542.3920000000003
2022-12-23T09:40:01.935Z,2157.424
2022-12-23T09:45:01.875Z,486.196
2022-12-23T09:50:01.904Z,560.623
2022-12-23T09:55:01.896Z,463.19100000000003
2022-12-23T10:00:01.996Z,384.396
2022-12-23T10:05:01.911Z,525.1
2022-12-23T10:10:01.931Z,457.485
2022-12-23T10:15:01.933Z,540.696
2022-12-23T10:20:01.947Z,453.111
2022-12-23T10:25:01.993Z,627.145
2022-12-23T10:30:14.179Z,570.625
2022-12-23T10:35:02.105Z,655.873
2022-12-23T10:40:02.173Z,1262.613
2022-12-23T10:45:02.101Z,2902.675
2022-12-23T10:50:02.079Z,3049.188
2022-12-23T10:55:02.041Z,2741.089
2022-12-23T11:00:01.981Z,2464.328
2022-12-23T11:05:02.011Z,2402.084
2022-12-23T11:10:02.029Z,2409.107
2022-12-23T11:15:01.965Z,2982.7670000000003
2022-12-23T11:20:02.087Z,668.939
2022-12-23T11:25:02.069Z,1954.593
2022-12-23T11:30:02.007Z,3188.339
2022-12-23T11:35:02.083Z,4628.484
2022-12-23T11:40:02.082Z,2896.793
2022-12-23T11:45:02.004Z,2539.569
2022-12-23T11:50:02.090Z,996.145
2022-12-23T11:55:02.247Z,679.766
2022-12-23T12:00:02.265Z,542.439
2022-12-23T12:05:02.221Z,482.387
2022-12-23T12:10:02.257Z,564.013
2022-12-23T12:15:02.170Z,524.025
2022-12-23T12:20:02.151Z,880.221
2022-12-23T12:25:02.186Z,1119.163
2022-12-23T12:30:06.288Z,2321.723
2022-12-23T12:35:02.042Z,2391.976
2022-12-23T12:40:02.046Z,2333.956
2022-12-23T12:45:02.062Z,3136.872
2022-12-23T12:50:02.074Z,3210.407
2022-12-23T12:55:02.081Z,3777.3140000000003
2022-12-23T13:00:06.288Z,2475.021
2022-12-23T13:05:02.031Z,2540.8
2022-12-23T13:10:02.293Z,1286.195
2022-12-23T13:15:02.129Z,1550.279
2022-12-23T13:20:02.212Z,2257.558
2022-12-23T13:25:02.123Z,2056.8360000000002
2022-12-23T13:30:02.156Z,1764.482
2022-12-23T13:35:02.543Z,2308.603
2022-12-23T13:40:02.252Z,1647.345
2022-12-23T13:45:02.323Z,779.715
2022-12-23T13:50:02.191Z,2246.82
2022-12-23T13:55:02.183Z,2350.657
2022-12-23T14:00:05.722Z,2305.991
2022-12-23T14:05:02.490Z,2525.323
2022-12-23T14:10:02.145Z,2457.818
2022-12-23T14:15:02.215Z,2774.3160000000003
2022-12-23T14:20:02.244Z,2076.393
2022-12-23T14:25:02.211Z,974.672
2022-12-23T14:30:05.859Z,864.975
2022-12-23T14:35:02.160Z,1674.818
2022-12-23T14:40:02.155Z,2211.376
2022-12-23T14:45:02.311Z,356.903
2022-12-23T14:50:02.220Z,838.415
2022-12-23T14:55:28.860Z,1018.8340000000001
2022-12-23T15:00:02.472Z,2305.985
2022-12-23T15:05:02.361Z,2443.558
2022-12-23T15:10:02.345Z,2532.177
2022-12-23T15:15:02.184Z,2542.024
2022-12-23T15:20:02.272Z,2730.851
2022-12-23T15:25:02.189Z,2601.8
2022-12-23T15:30:02.238Z,422.628
2022-12-23T15:35:02.298Z,401.559
2022-12-23T15:40:12.465Z,382.173
2022-12-23T15:45:02.292Z,379.633
2022-12-23T15:50:02.225Z,378.86
2022-12-23T15:55:02.250Z,489.72700000000003
2022-12-23T16:00:02.242Z,467.69
2022-12-23T16:05:02.213Z,457.25
2022-12-23T16:10:02.411Z,344.427
2022-12-23T16:15:02.407Z,615.718
2022-12-23T16:20:02.330Z,2323.612
2022-12-23T16:25:02.370Z,2329.034
2022-12-23T16:30:02.262Z,2092.08
2022-12-23T16:35:02.272Z,2378.282
2022-12-23T16:40:02.231Z,2385.514
2022-12-23T16:45:02.380Z,2438.598
2022-12-23T16:50:02.355Z,2453.844
2022-12-23T16:55:02.379Z,2722.378
2022-12-23T17:00:02.344Z,1846.676
2022-12-23T17:05:02.349Z,273.987
2022-12-23T17:10:02.311Z,302.449
2022-12-23T17:15:02.297Z,660.4780000000001
2022-12-23T17:20:02.376Z,2409.169
2022-12-23T17:25:02.454Z,2435.485
2022-12-23T17:30:02.432Z,2530.015
2022-12-23T17:35:02.526Z,2520.151
2022-12-23T17:40:02.491Z,2523.877
2022-12-23T17:45:02.535Z,1875.597
2022-12-23T17:50:02.408Z,2416.856
2022-12-23T17:55:02.338Z,2424.198
2022-12-23T18:00:02.389Z,2445.443
2022-12-23T18:05:02.311Z,2108.12
2022-12-23T18:10:02.356Z,2763.978
2022-12-23T18:15:02.523Z,3033.2960000000003
2022-12-23T18:20:02.496Z,525.167
2022-12-23T18:25:02.312Z,523.963
2022-12-23T18:30:02.364Z,467.628
2022-12-23T18:35:02.435Z,529.879
2022-12-23T18:40:02.346Z,439.369
2022-12-23T18:45:02.349Z,435.777
2022-12-23T18:50:02.533Z,425.098
2022-12-23T18:55:02.552Z,2033.7740000000001
2022-12-23T19:00:02.513Z,2736.4410000000003
2022-12-23T19:05:02.498Z,4046.049
2022-12-23T19:10:02.388Z,4122.231
2022-12-23T19:15:02.410Z,2888.973
2022-12-23T19:20:02.476Z,2908.906
2022-12-23T19:25:06.468Z,2956.542
2022-12-23T19:30:02.455Z,1156.797
2022-12-23T19:35:02.463Z,427.974
2022-12-23T19:40:02.419Z,592.912
2022-12-23T19:45:02.415Z,453.693
2022-12-23T19:50:02.437Z,572.03
2022-12-23T19:55:02.525Z,591.497
2022-12-23T20:00:02.463Z,600.13
2022-12-23T20:05:02.713Z,2276.6440000000002
2022-12-23T20:10:02.723Z,2533.599
2022-12-23T20:15:02.681Z,2165.6910000000003
2022-12-23T20:20:02.642Z,2534.175
2022-12-23T20:25:02.525Z,2413.504
2022-12-23T20:30:02.469Z,2444.6040000000003
2022-12-23T20:35:02.492Z,2610.38
2022-12-23T20:40:02.515Z,3032.274
2022-12-23T20:45:02.483Z,1904.881
2022-12-23T20:50:02.516Z,498.361
2022-12-23T20:55:02.531Z,441.195
2022-12-23T21:00:02.486Z,519.628
2022-12-23T21:05:02.627Z,437.187
2022-12-23T21:10:05.431Z,416.366
2022-12-23T21:15:02.527Z,913.861
2022-12-23T21:20:07.407Z,588.986
2022-12-23T21:25:02.495Z,1266.4950000000001
2022-12-23T21:30:02.544Z,2427.871
2022-12-23T21:35:02.540Z,2443.103
2022-12-23T21:40:02.510Z,2426.338
2022-12-23T21:45:02.767Z,2337.742
2022-12-23T21:50:02.770Z,2208.878
2022-12-23T21:55:02.747Z,2516.2110000000002
2022-12-23T22:00:02.627Z,2889.034
2022-12-23T22:05:02.550Z,1579.651
2022-12-23T22:10:02.570Z,349.998
2022-12-23T22:15:06.325Z,460.398
2022-12-23T22:20:02.568Z,452.837
2022-12-23T22:25:02.558Z,441.794
2022-12-23T22:30:02.634Z,371.726
2022-12-23T22:35:02.571Z,858.859
2022-12-23T22:40:02.565Z,2323.588
2022-12-23T22:45:02.589Z,2329.15
2022-12-23T22:50:02.657Z,2352.777
2022-12-23T22:55:02.583Z,2375.093
2022-12-23T23:00:07.967Z,2492.589
2022-12-23T23:05:04.450Z,2523.099
2022-12-23T23:10:02.613Z,2657.0370000000003
2022-12-23T23:15:02.620Z,2324.742
2022-12-23T23:20:02.617Z,3001.437
2022-12-23T23:25:02.783Z,463.95300000000003
2022-12-23T23:30:02.757Z,379.826
2022-12-23T23:35:06.939Z,341.408
2022-12-23T23:40:02.723Z,362.257
2022-12-23T23:45:02.980Z,602.433
2022-12-23T23:50:02.703Z,2442.297
2022-12-23T23:55:02.684Z,2456.131
